Time;durP1;ratioP1;P1;durP2;ratioP2;P2;SDS_P1;SDS_P2;PMS_P1;PMS_P2;Temp;Humidity;BMP_temperature;BMP_pressure;BME280_temperature;BME280_humidity;BME280_pressure;Samples;Min_cycle;Max_cycle;Signal;HPM_P1;HPM_P2
2023/04/30 00:00:41;;;;;;;16.93;8.60;;;13.00;99.90;;;;;;5016290;28;20481;-72
2023/04/30 00:03:26;;;;;;;12.07;9.57;;;13.00;99.90;;;;;;5006553;28;20449;-72
2023/04/30 00:06:12;;;;;;;11.17;9.47;;;13.00;99.90;;;;;;5016594;28;21119;-72
2023/04/30 00:08:59;;;;;;;14.87;10.73;;;13.00;99.90;;;;;;5017264;28;20917;-72
2023/04/30 00:11:44;;;;;;;13.63;10.30;;;13.00;99.90;;;;;;5010879;28;20445;-72
2023/04/30 00:14:30;;;;;;;11.07;9.93;;;13.00;99.90;;;;;;5015561;28;20488;-72
2023/04/30 00:17:15;;;;;;;15.03;9.90;;;13.00;99.90;;;;;;5020166;28;20496;-72
2023/04/30 00:20:01;;;;;;;12.23;9.20;;;12.90;99.90;;;;;;5014797;28;20559;-72
2023/04/30 00:22:46;;;;;;;13.47;9.33;;;12.90;99.90;;;;;;5008930;28;20470;-72
2023/04/30 00:25:33;;;;;;;16.47;10.37;;;12.90;99.90;;;;;;5019589;28;20462;-72
2023/04/30 00:28:19;;;;;;;12.03;9.77;;;12.90;99.90;;;;;;5019600;28;21433;-72
2023/04/30 00:31:07;;;;;;;15.10;9.27;;;12.80;99.90;;;;;;5020122;28;20455;-72
2023/04/30 00:33:53;;;;;;;15.20;10.33;;;12.80;99.90;;;;;;5014908;28;20931;-72
2023/04/30 00:36:39;;;;;;;11.13;8.10;;;12.70;99.90;;;;;;5006365;28;20454;-72
2023/04/30 00:39:24;;;;;;;15.87;9.57;;;12.80;99.90;;;;;;5012223;28;20819;-72
2023/04/30 00:42:11;;;;;;;10.87;9.77;;;12.80;99.90;;;;;;5004439;28;20455;-72
2023/04/30 00:44:57;;;;;;;15.77;10.17;;;12.80;99.90;;;;;;5009446;28;20457;-72
2023/04/30 00:47:42;;;;;;;10.37;8.73;;;12.80;99.90;;;;;;5016757;28;20444;-72
2023/04/30 00:50:28;;;;;;;13.00;10.50;;;12.80;99.90;;;;;;5012453;28;20457;-72
2023/04/30 00:53:14;;;;;;;11.40;8.80;;;12.80;99.90;;;;;;5011499;28;20450;-72
2023/04/30 00:56:00;;;;;;;11.83;8.63;;;12.70;99.90;;;;;;5019651;28;20499;-72
2023/04/30 00:58:50;;;;;;;13.67;10.07;;;12.70;99.90;;;;;;5020273;28;20596;-72
2023/04/30 01:01:35;;;;;;;12.30;11.00;;;12.70;99.90;;;;;;5007578;28;20971;-72
2023/04/30 01:04:21;;;;;;;11.90;10.40;;;12.70;99.90;;;;;;5007686;28;20427;-72
2023/04/30 01:07:07;;;;;;;15.47;9.47;;;12.70;99.90;;;;;;5013987;28;21011;-72
2023/04/30 01:09:52;;;;;;;14.17;10.83;;;12.60;99.90;;;;;;5017696;28;20983;-72
2023/04/30 01:12:44;;;;;;;12.47;9.80;;;12.60;99.90;;;;;;5004518;28;20419;-72
2023/04/30 01:15:40;;;;;;;15.53;11.33;;;12.60;99.90;;;;;;5014567;28;20420;-72
2023/04/30 01:18:31;;;;;;;14.80;11.10;;;12.50;99.90;;;;;;5013995;28;20498;-72
2023/04/30 01:21:18;;;;;;;14.40;10.80;;;12.50;99.90;;;;;;5012595;28;20459;-72
2023/04/30 01:24:23;;;;;;;11.33;9.53;;;12.60;99.90;;;;;;5014038;28;20444;-72
2023/04/30 01:27:23;;;;;;;12.07;10.63;;;12.60;99.90;;;;;;5016947;28;20542;-72
2023/04/30 01:30:11;;;;;;;14.60;12.00;;;12.60;99.90;;;;;;5017880;28;20974;-72
2023/04/30 01:32:57;;;;;;;11.23;10.03;;;12.60;99.90;;;;;;5009712;28;20969;-72
2023/04/30 01:35:57;;;;;;;12.67;10.57;;;12.60;99.90;;;;;;5021541;28;20797;-72
2023/04/30 01:39:06;;;;;;;12.27;10.57;;;12.60;99.90;;;;;;5010978;28;20996;-72
2023/04/30 01:42:06;;;;;;;13.23;9.40;;;12.50;99.90;;;;;;4986028;28;20946;-72
2023/04/30 01:45:09;;;;;;;12.93;9.83;;;12.50;99.90;;;;;;5006831;28;20441;-72
2023/04/30 01:48:06;;;;;;;16.00;10.10;;;12.50;99.90;;;;;;5018707;28;20501;-72
2023/04/30 01:50:58;;;;;;;12.00;10.70;;;12.50;99.90;;;;;;5007112;28;20537;-72
2023/04/30 01:53:45;;;;;;;14.63;10.47;;;12.50;99.90;;;;;;5012023;28;20425;-72
2023/04/30 01:56:36;;;;;;;12.60;10.40;;;12.50;99.90;;;;;;5014501;28;20420;-72
2023/04/30 01:59:23;;;;;;;13.93;11.67;;;12.50;99.90;;;;;;5015785;28;20485;-72
2023/04/30 02:02:08;;;;;;;13.10;10.07;;;12.50;99.90;;;;;;5002306;28;20782;-72
2023/04/30 02:04:55;;;;;;;11.20;10.10;;;12.50;99.90;;;;;;5014211;28;20430;-72
2023/04/30 02:07:43;;;;;;;14.23;10.37;;;12.50;99.90;;;;;;5014927;28;20458;-72
2023/04/30 02:10:29;;;;;;;12.07;9.77;;;12.40;99.90;;;;;;5012179;28;20460;-72
2023/04/30 02:13:14;;;;;;;16.33;10.40;;;12.50;99.90;;;;;;5017127;28;20457;-72
2023/04/30 02:16:00;;;;;;;13.73;10.70;;;12.50;99.90;;;;;;5017369;28;20426;-72
2023/04/30 02:18:45;;;;;;;16.03;10.60;;;12.50;99.90;;;;;;5016674;28;20446;-72
2023/04/30 02:21:32;;;;;;;14.67;10.97;;;12.50;99.90;;;;;;5003229;28;20772;-73
2023/04/30 02:24:17;;;;;;;14.03;10.70;;;12.40;99.90;;;;;;5008316;28;20451;-72
2023/04/30 02:27:03;;;;;;;14.30;10.37;;;12.50;99.90;;;;;;5017056;28;20431;-72
2023/04/30 02:29:49;;;;;;;14.73;11.93;;;12.50;99.90;;;;;;5014659;28;20470;-72
2023/04/30 02:32:35;;;;;;;17.17;10.80;;;12.40;99.90;;;;;;5010364;28;20449;-72
2023/04/30 02:35:21;;;;;;;13.93;12.47;;;12.40;99.90;;;;;;5016545;28;20524;-72
2023/04/30 02:38:08;;;;;;;20.17;11.93;;;12.50;99.90;;;;;;5011815;28;20481;-72
2023/04/30 02:40:54;;;;;;;12.73;11.37;;;12.50;99.90;;;;;;5004487;28;20835;-72
2023/04/30 02:43:39;;;;;;;14.37;11.60;;;12.40;99.90;;;;;;5016044;28;20439;-72
2023/04/30 02:46:25;;;;;;;13.50;11.80;;;12.50;99.90;;;;;;5013086;28;20424;-72
2023/04/30 02:49:10;;;;;;;13.67;11.87;;;12.50;99.90;;;;;;5010531;28;20446;-72
2023/04/30 02:51:56;;;;;;;13.07;11.27;;;12.50;99.90;;;;;;5006151;28;20909;-72
2023/04/30 02:54:43;;;;;;;14.93;11.37;;;12.50;99.90;;;;;;5013365;28;20448;-72
2023/04/30 02:57:28;;;;;;;15.13;12.40;;;12.50;99.90;;;;;;5020262;28;20471;-72
2023/04/30 03:00:14;;;;;;;13.50;11.33;;;12.50;99.90;;;;;;5010772;28;21004;-72
2023/04/30 03:02:59;;;;;;;13.23;11.83;;;12.50;99.90;;;;;;5016831;28;20420;-72
2023/04/30 03:05:44;;;;;;;15.37;12.70;;;12.40;99.90;;;;;;5019304;28;20530;-72
2023/04/30 03:08:30;;;;;;;15.63;12.77;;;12.40;99.90;;;;;;5019478;28;20576;-72
2023/04/30 03:11:17;;;;;;;22.03;13.80;;;12.40;99.90;;;;;;5006869;28;20480;-72
2023/04/30 03:14:02;;;;;;;14.97;12.93;;;12.40;99.90;;;;;;5012828;28;20442;-72
2023/04/30 03:16:48;;;;;;;15.23;13.00;;;12.40;99.90;;;;;;5011941;28;20444;-72
2023/04/30 03:19:33;;;;;;;16.03;12.73;;;12.40;99.90;;;;;;5013008;28;20550;-72
2023/04/30 03:22:22;;;;;;;15.40;12.17;;;12.40;99.90;;;;;;5012260;28;20526;-72
2023/04/30 03:25:08;;;;;;;14.90;13.03;;;12.30;99.90;;;;;;5010106;28;20415;-72
2023/04/30 03:27:55;;;;;;;15.97;13.70;;;12.30;99.90;;;;;;5016439;28;20498;-72
2023/04/30 03:30:40;;;;;;;17.63;13.50;;;12.30;99.90;;;;;;5008456;28;20571;-72
2023/04/30 03:33:26;;;;;;;16.43;12.83;;;12.30;99.90;;;;;;5014808;28;20419;-72
2023/04/30 03:36:11;;;;;;;13.40;12.00;;;12.30;99.90;;;;;;5020419;28;20436;-72
2023/04/30 03:38:57;;;;;;;14.13;12.63;;;12.40;99.90;;;;;;5015044;28;20960;-72
2023/04/30 03:41:42;;;;;;;18.97;13.50;;;12.30;99.90;;;;;;5014604;28;20788;-72
2023/04/30 03:44:29;;;;;;;17.07;14.47;;;12.30;99.90;;;;;;5013428;28;20417;-72
2023/04/30 03:47:15;;;;;;;16.73;15.00;;;12.30;99.90;;;;;;5021313;28;20422;-72
2023/04/30 03:50:00;;;;;;;18.97;15.90;;;12.30;99.90;;;;;;5009509;28;20447;-72
2023/04/30 03:52:46;;;;;;;21.93;15.40;;;12.20;99.90;;;;;;5018855;28;20517;-72
2023/04/30 03:55:31;;;;;;;17.43;13.53;;;12.20;99.90;;;;;;5023522;28;20547;-72
2023/04/30 03:58:17;;;;;;;16.70;13.90;;;12.20;99.90;;;;;;5021130;28;20424;-72
2023/04/30 04:01:05;;;;;;;16.90;13.60;;;12.20;99.90;;;;;;5020132;28;20486;-73
2023/04/30 04:03:50;;;;;;;16.37;13.57;;;12.20;99.90;;;;;;5016858;28;20411;-72
2023/04/30 04:06:36;;;;;;;16.83;14.20;;;12.20;99.90;;;;;;5010127;28;20475;-72
2023/04/30 04:09:21;;;;;;;16.10;13.57;;;12.30;99.90;;;;;;5014891;28;20556;-72
2023/04/30 04:12:07;;;;;;;15.70;14.03;;;12.30;99.90;;;;;;5021794;28;20446;-72
2023/04/30 04:14:53;;;;;;;16.00;13.90;;;12.30;99.90;;;;;;5024437;28;20583;-72
2023/04/30 04:17:39;;;;;;;19.07;14.63;;;12.30;99.90;;;;;;5016598;28;21073;-72
2023/04/30 04:20:26;;;;;;;17.70;14.60;;;12.30;99.90;;;;;;5017025;28;21054;-72
2023/04/30 04:23:11;;;;;;;16.60;14.13;;;12.30;99.90;;;;;;5015173;28;20824;-72
2023/04/30 04:25:57;;;;;;;17.53;14.33;;;12.30;99.90;;;;;;5023255;28;20952;-72
2023/04/30 04:28:42;;;;;;;18.50;14.40;;;12.20;99.90;;;;;;5008769;28;20457;-72
2023/04/30 04:31:28;;;;;;;15.60;13.20;;;12.30;99.90;;;;;;5022546;28;20550;-69
2023/04/30 04:34:14;;;;;;;17.37;13.80;;;12.30;99.90;;;;;;5010870;28;20487;-70
2023/04/30 04:37:00;;;;;;;17.63;13.50;;;12.30;99.90;;;;;;5019042;28;20416;-72
2023/04/30 04:39:45;;;;;;;14.83;13.30;;;12.20;99.90;;;;;;5013556;28;20480;-71
2023/04/30 04:42:32;;;;;;;16.50;13.03;;;12.20;99.90;;;;;;5005840;28;20580;-70
2023/04/30 04:45:18;;;;;;;15.90;13.50;;;12.20;99.90;;;;;;5015017;28;20944;-70
2023/04/30 04:48:03;;;;;;;16.53;14.20;;;12.30;99.90;;;;;;5010928;28;21033;-70
2023/04/30 04:50:50;;;;;;;15.00;12.47;;;12.30;99.90;;;;;;5010317;28;20469;-74
2023/04/30 04:53:35;;;;;;;14.50;13.00;;;12.20;99.90;;;;;;5012125;28;20784;-71
2023/04/30 04:56:21;;;;;;;16.10;13.30;;;12.20;99.90;;;;;;5019612;28;20471;-71
2023/04/30 04:59:07;;;;;;;18.03;12.27;;;12.20;99.90;;;;;;5007589;28;20505;-72
2023/04/30 05:01:52;;;;;;;15.87;13.00;;;12.30;99.90;;;;;;5012511;28;20461;-70
2023/04/30 05:04:37;;;;;;;19.93;12.50;;;12.30;99.90;;;;;;5006046;28;20834;-71
2023/04/30 05:07:24;;;;;;;17.67;12.43;;;12.30;99.90;;;;;;5006262;28;20441;-70
2023/04/30 05:10:10;;;;;;;17.80;13.17;;;12.30;99.90;;;;;;5012461;28;20491;-70
2023/04/30 05:12:56;;;;;;;19.10;11.57;;;12.30;99.90;;;;;;5017706;28;20497;-71
2023/04/30 05:15:41;;;;;;;20.73;13.30;;;12.30;99.90;;;;;;5011229;28;20445;-71
2023/04/30 05:18:27;;;;;;;15.13;12.43;;;12.40;99.90;;;;;;5015209;28;20454;-70
2023/04/30 05:21:12;;;;;;;15.40;12.00;;;12.40;99.90;;;;;;5014779;28;20465;-71
2023/04/30 05:23:59;;;;;;;14.17;12.40;;;12.40;99.90;;;;;;5013492;28;20945;-73
2023/04/30 05:26:45;;;;;;;15.20;12.80;;;12.40;99.90;;;;;;5021038;28;20579;-71
2023/04/30 05:29:30;;;;;;;21.00;11.87;;;12.40;99.90;;;;;;5015672;28;20884;-71
2023/04/30 05:32:15;;;;;;;14.40;11.83;;;12.30;99.90;;;;;;5018744;28;20853;-70
2023/04/30 05:35:01;;;;;;;15.90;12.47;;;12.30;99.90;;;;;;5015769;28;20444;-70
2023/04/30 05:37:47;;;;;;;15.77;12.13;;;12.40;99.90;;;;;;5009599;28;20465;-71
2023/04/30 05:40:33;;;;;;;18.33;12.60;;;12.40;99.90;;;;;;5021769;28;20442;-72
2023/04/30 05:43:19;;;;;;;16.20;12.47;;;12.30;99.90;;;;;;5015362;28;20418;-71
2023/04/30 05:46:05;;;;;;;14.67;11.80;;;12.40;99.90;;;;;;5017615;28;20808;-71
2023/04/30 05:48:50;;;;;;;15.17;12.13;;;12.40;99.90;;;;;;5006369;28;20445;-70
2023/04/30 05:51:35;;;;;;;14.23;11.30;;;12.40;99.90;;;;;;5012696;28;20588;-70
2023/04/30 05:54:21;;;;;;;13.00;11.50;;;12.40;99.90;;;;;;5015399;28;20451;-71
2023/04/30 05:57:08;;;;;;;16.27;13.17;;;12.50;99.90;;;;;;5010783;28;21074;-71
2023/04/30 05:59:53;;;;;;;14.67;10.30;;;12.50;99.90;;;;;;5010841;28;20472;-71
2023/04/30 06:02:39;;;;;;;13.13;11.33;;;12.50;99.90;;;;;;5015043;28;20924;-71
2023/04/30 06:05:25;;;;;;;12.93;10.80;;;12.70;99.90;;;;;;5012962;28;20586;-70
2023/04/30 06:08:10;;;;;;;12.83;11.37;;;12.70;99.90;;;;;;5007621;28;20819;-72
2023/04/30 06:10:56;;;;;;;17.80;11.87;;;12.90;99.90;;;;;;5015391;28;20516;-71
2023/04/30 06:13:42;;;;;;;15.77;10.03;;;13.00;99.90;;;;;;5021070;28;20426;-71
2023/04/30 06:16:29;;;;;;;14.80;10.80;;;13.00;99.90;;;;;;5017971;28;20536;-71
2023/04/30 06:19:15;;;;;;;14.67;11.43;;;13.10;99.90;;;;;;5009096;28;20522;-71
2023/04/30 06:22:00;;;;;;;13.80;11.43;;;13.20;99.90;;;;;;5010654;28;20415;-71
2023/04/30 06:24:45;;;;;;;11.77;10.03;;;13.20;99.90;;;;;;5020133;28;20807;-71
2023/04/30 06:27:31;;;;;;;16.63;10.17;;;13.20;99.90;;;;;;4999768;28;20628;-70
2023/04/30 06:30:18;;;;;;;12.30;10.07;;;13.20;99.90;;;;;;5017457;28;20522;-71
2023/04/30 06:33:03;;;;;;;13.07;10.43;;;13.40;99.90;;;;;;5017190;28;20547;-70
2023/04/30 06:35:49;;;;;;;15.30;9.57;;;13.50;99.90;;;;;;5011601;28;20933;-71
2023/04/30 06:38:35;;;;;;;12.40;9.47;;;13.70;99.90;;;;;;5008869;28;20461;-71
2023/04/30 06:41:21;;;;;;;10.23;8.50;;;13.70;99.90;;;;;;5011745;28;20452;-71
2023/04/30 06:44:06;;;;;;;9.90;8.50;;;13.80;99.90;;;;;;5013474;28;20440;-71
2023/04/30 06:46:53;;;;;;;12.87;9.63;;;13.80;99.90;;;;;;5013242;28;20466;-70
2023/04/30 06:49:38;;;;;;;11.30;9.53;;;13.80;99.90;;;;;;5013067;28;20516;-71
2023/04/30 06:52:24;;;;;;;10.80;8.53;;;13.90;99.90;;;;;;5020887;28;20484;-70
2023/04/30 06:55:09;;;;;;;11.60;8.23;;;13.90;99.90;;;;;;5019271;28;20435;-71
2023/04/30 06:57:56;;;;;;;10.57;8.17;;;14.00;99.90;;;;;;5011845;28;20439;-72
2023/04/30 07:00:42;;;;;;;10.60;8.50;;;14.00;99.90;;;;;;5024203;28;21011;-71
2023/04/30 07:03:29;;;;;;;10.00;8.17;;;14.10;99.90;;;;;;5013274;28;20673;-70
2023/04/30 07:06:15;;;;;;;10.30;7.50;;;14.30;99.90;;;;;;5006670;28;20519;-72
2023/04/30 07:09:00;;;;;;;9.47;7.90;;;14.40;99.90;;;;;;5015839;28;20493;-70
2023/04/30 07:11:46;;;;;;;14.50;7.70;;;14.40;99.90;;;;;;5011774;28;20960;-70
2023/04/30 07:14:31;;;;;;;11.73;8.00;;;14.50;99.90;;;;;;5024043;28;20982;-71
2023/04/30 07:17:17;;;;;;;10.33;7.47;;;14.60;99.90;;;;;;5009560;28;20459;-71
2023/04/30 07:20:04;;;;;;;22.93;7.77;;;14.60;99.90;;;;;;5018725;28;20455;-70
2023/04/30 07:22:49;;;;;;;10.87;7.63;;;14.70;99.90;;;;;;5019518;28;20947;-71
2023/04/30 07:25:35;;;;;;;11.50;7.70;;;14.70;99.90;;;;;;5018849;28;20458;-72
2023/04/30 07:28:21;;;;;;;9.53;6.93;;;14.70;99.90;;;;;;5017782;28;20453;-71
2023/04/30 07:31:06;;;;;;;7.83;6.47;;;14.70;99.90;;;;;;5011674;28;20468;-71
2023/04/30 07:33:54;;;;;;;7.00;5.97;;;14.80;99.90;;;;;;5017629;28;20465;-72
2023/04/30 07:36:40;;;;;;;10.47;7.40;;;14.90;99.90;;;;;;5012263;28;20517;-71
2023/04/30 07:39:26;;;;;;;15.17;6.60;;;14.90;99.90;;;;;;5015334;28;20452;-71
2023/04/30 07:42:11;;;;;;;10.13;6.60;;;14.90;99.90;;;;;;5009729;28;20514;-71
2023/04/30 07:44:57;;;;;;;11.47;6.57;;;15.00;99.90;;;;;;5008717;28;20484;-76
2023/04/30 07:47:43;;;;;;;11.90;6.47;;;15.10;99.90;;;;;;5016304;28;20431;-71
2023/04/30 07:50:32;;;;;;;8.80;6.83;;;15.20;99.90;;;;;;5021876;28;20451;-72
2023/04/30 07:53:19;;;;;;;10.53;6.90;;;15.20;99.90;;;;;;5019085;28;20466;-75
2023/04/30 07:56:05;;;;;;;10.93;6.17;;;15.20;99.90;;;;;;5003195;28;20448;-72
2023/04/30 07:58:50;;;;;;;8.13;6.43;;;15.30;99.90;;;;;;5015396;28;20497;-71
2023/04/30 08:01:35;;;;;;;7.63;6.20;;;15.40;99.90;;;;;;5016650;28;20473;-71
2023/04/30 08:04:21;;;;;;;10.10;6.47;;;15.40;99.90;;;;;;5020755;28;20487;-71
2023/04/30 08:07:07;;;;;;;11.50;7.13;;;15.50;99.90;;;;;;5009549;28;20540;-71
2023/04/30 08:09:53;;;;;;;9.43;5.97;;;15.60;99.90;;;;;;5018004;28;20830;-73
2023/04/30 08:12:39;;;;;;;10.30;6.40;;;15.60;99.90;;;;;;5014730;28;20478;-73
2023/04/30 08:15:25;;;;;;;11.77;6.20;;;15.70;99.90;;;;;;5006996;28;20802;-70
2023/04/30 08:18:10;;;;;;;9.53;6.23;;;15.70;94.50;;;;;;5013593;28;20416;-70
2023/04/30 08:20:56;;;;;;;8.30;5.40;;;15.70;92.30;;;;;;5007872;28;20515;-72
2023/04/30 08:23:41;;;;;;;8.17;5.80;;;15.80;95.30;;;;;;5007799;28;20983;-73
2023/04/30 08:26:28;;;;;;;6.70;5.03;;;15.80;88.00;;;;;;5013005;28;20449;-70
2023/04/30 08:29:14;;;;;;;11.70;6.10;;;15.70;93.60;;;;;;5018518;28;20497;-72
2023/04/30 08:32:02;;;;;;;8.83;5.33;;;15.70;91.00;;;;;;5022444;28;20446;-71
2023/04/30 08:34:48;;;;;;;8.90;5.00;;;15.80;91.90;;;;;;5007917;28;20814;-75
2023/04/30 08:37:34;;;;;;;6.77;5.43;;;15.80;91.90;;;;;;5011664;28;20458;-71
2023/04/30 08:40:20;;;;;;;10.80;5.53;;;15.90;91.60;;;;;;5012626;28;20444;-72
2023/04/30 08:43:08;;;;;;;6.60;5.30;;;15.90;89.50;;;;;;5019148;28;20445;-70
2023/04/30 08:45:53;;;;;;;8.90;6.40;;;15.70;89.30;;;;;;5009575;28;20468;-71
2023/04/30 08:48:40;;;;;;;7.93;5.23;;;15.70;85.00;;;;;;5004733;28;20823;-71
2023/04/30 08:51:27;;;;;;;7.23;4.63;;;15.60;82.60;;;;;;5016761;28;20443;-70
2023/04/30 08:54:13;;;;;;;9.43;4.77;;;15.60;81.80;;;;;;5010242;28;20570;-71
2023/04/30 08:56:58;;;;;;;6.47;4.63;;;15.70;80.40;;;;;;5002207;28;20448;-77
2023/04/30 08:59:46;;;;;;;9.40;4.63;;;15.90;80.90;;;;;;5013183;28;20988;-70
2023/04/30 09:02:32;;;;;;;6.27;4.40;;;16.10;79.40;;;;;;5006827;28;20468;-72
2023/04/30 09:05:17;;;;;;;5.40;4.00;;;16.40;81.00;;;;;;5004600;28;20435;-71
2023/04/30 09:08:03;;;;;;;5.60;3.80;;;16.60;79.10;;;;;;5016108;28;22158;-71
2023/04/30 09:10:48;;;;;;;6.40;3.70;;;16.70;69.40;;;;;;5014763;28;20467;-70
2023/04/30 09:13:40;;;;;;;5.70;3.33;;;16.70;67.80;;;;;;4999756;28;20502;-71
2023/04/30 09:16:31;;;;;;;9.40;3.63;;;16.80;68.50;;;;;;5004015;28;20827;-70
2023/04/30 09:19:24;;;;;;;5.43;3.47;;;16.90;69.10;;;;;;5019109;28;20461;-70
2023/04/30 09:22:20;;;;;;;5.00;3.33;;;16.90;61.60;;;;;;5009109;28;20471;-71
2023/04/30 09:25:10;;;;;;;5.73;3.60;;;16.80;60.40;;;;;;5007960;28;20429;-71
2023/04/30 09:28:08;;;;;;;6.60;3.47;;;16.80;62.30;;;;;;5015026;28;20432;-71
2023/04/30 09:30:53;;;;;;;5.70;3.50;;;16.70;58.00;;;;;;5002560;28;20872;-71
2023/04/30 09:33:46;;;;;;;8.17;3.20;;;16.60;55.40;;;;;;5009486;28;21055;-73
2023/04/30 09:36:33;;;;;;;5.53;3.00;;;16.50;56.30;;;;;;5013484;28;20487;-73
2023/04/30 09:39:18;;;;;;;5.80;3.57;;;16.30;49.40;;;;;;5017899;28;20434;-72
2023/04/30 09:42:11;;;;;;;14.47;3.27;;;16.20;51.30;;;;;;5005357;28;20453;-70
2023/04/30 09:44:56;;;;;;;5.93;3.23;;;16.20;54.60;;;;;;5010873;28;20461;-71
2023/04/30 09:47:41;;;;;;;7.03;3.63;;;16.20;53.30;;;;;;5019669;28;20465;-70
2023/04/30 09:50:37;;;;;;;6.50;3.40;;;16.40;56.40;;;;;;5019548;28;20559;-70
2023/04/30 09:53:23;;;;;;;4.80;3.47;;;16.60;58.90;;;;;;5011034;28;20517;-71
2023/04/30 09:56:09;;;;;;;5.63;3.50;;;16.90;59.90;;;;;;5015367;28;20442;-73
2023/04/30 09:58:56;;;;;;;4.00;3.03;;;17.10;60.80;;;;;;5026150;28;20457;-71
2023/04/30 10:01:42;;;;;;;3.43;2.63;;;17.40;56.00;;;;;;5010964;28;20807;-71
2023/04/30 10:04:30;;;;;;;5.03;3.40;;;17.50;52.40;;;;;;5007829;28;20820;-72
2023/04/30 10:07:21;;;;;;;7.53;3.13;;;17.40;44.90;;;;;;5011344;28;20450;-70
2023/04/30 10:10:09;;;;;;;3.50;2.60;;;17.30;50.50;;;;;;5000933;28;20555;-70
2023/04/30 10:13:00;;;;;;;4.20;2.50;;;17.30;49.70;;;;;;5009732;28;20599;-71
2023/04/30 10:15:50;;;;;;;8.63;3.10;;;17.30;54.50;;;;;;5013437;28;20463;-72
2023/04/30 10:18:39;;;;;;;3.20;2.90;;;17.40;45.40;;;;;;5010168;28;20462;-71
2023/04/30 10:21:26;;;;;;;4.87;2.90;;;17.60;44.90;;;;;;5005379;28;20465;-70
2023/04/30 10:24:17;;;;;;;4.10;2.53;;;17.60;44.00;;;;;;5007138;28;20496;-70
2023/04/30 10:27:02;;;;;;;3.43;2.73;;;17.70;46.50;;;;;;5006719;28;20449;-75
2023/04/30 10:29:50;;;;;;;4.83;2.30;;;17.90;42.20;;;;;;5032583;22;20443;-70
2023/04/30 10:32:41;;;;;;;4.90;2.40;;;18.00;41.70;;;;;;5027231;28;20585;-71
2023/04/30 10:35:30;;;;;;;3.47;2.83;;;18.10;41.10;;;;;;5028381;28;20449;-71
2023/04/30 10:38:21;;;;;;;7.80;3.60;;;18.10;42.50;;;;;;5036983;28;20450;-71
2023/04/30 10:41:09;;;;;;;7.73;2.87;;;18.10;38.70;;;;;;5023489;28;21010;-71
2023/04/30 10:43:57;;;;;;;4.50;2.47;;;18.30;40.80;;;;;;5018198;28;20438;-72
2023/04/30 10:46:42;;;;;;;2.97;2.07;;;18.50;44.00;;;;;;5021538;28;20618;-72
2023/04/30 10:49:28;;;;;;;3.80;2.00;;;18.70;40.80;;;;;;5021419;28;20447;-73
2023/04/30 10:52:14;;;;;;;5.20;2.43;;;18.80;38.30;;;;;;5020657;28;20497;-72
2023/04/30 10:55:04;;;;;;;5.33;2.13;;;18.90;38.40;;;;;;5020446;28;20999;-72
2023/04/30 10:57:54;;;;;;;4.70;2.27;;;19.00;40.10;;;;;;5025843;28;20510;-71
2023/04/30 11:00:50;;;;;;;5.73;2.27;;;18.90;31.60;;;;;;5022135;28;20561;-71
2023/04/30 11:03:37;;;;;;;4.17;2.37;;;18.90;34.60;;;;;;5019310;28;20445;-71
2023/04/30 11:06:25;;;;;;;4.00;2.33;;;18.90;33.50;;;;;;5020799;28;20433;-73
2023/04/30 11:09:10;;;;;;;4.10;2.40;;;18.80;32.40;;;;;;5022679;28;20417;-75
2023/04/30 11:12:02;;;;;;;3.83;2.00;;;18.80;32.70;;;;;;5028953;28;20519;-73
2023/04/30 11:14:50;;;;;;;2.83;2.03;;;18.70;36.40;;;;;;5022921;28;20947;-73
2023/04/30 11:17:38;;;;;;;2.80;1.90;;;18.80;33.30;;;;;;5021001;28;20453;-73
2023/04/30 11:20:25;;;;;;;3.33;2.20;;;18.70;31.60;;;;;;5021966;28;20535;-73
2023/04/30 11:23:13;;;;;;;3.13;2.10;;;18.80;34.50;;;;;;5024249;28;20490;-75
2023/04/30 11:26:01;;;;;;;4.53;1.80;;;19.10;33.90;;;;;;5024335;28;20947;-75
2023/04/30 11:28:51;;;;;;;5.80;2.10;;;19.20;36.50;;;;;;5021433;28;20452;-72
2023/04/30 11:31:39;;;;;;;4.53;2.33;;;19.40;31.50;;;;;;5038967;28;20477;-72
2023/04/30 11:34:26;;;;;;;3.87;1.67;;;19.40;30.40;;;;;;5026101;28;20442;-72
2023/04/30 11:37:13;;;;;;;4.20;2.33;;;19.30;29.70;;;;;;5024568;28;20854;-73
2023/04/30 11:40:01;;;;;;;6.50;2.27;;;19.30;29.70;;;;;;5031582;28;20469;-72
2023/04/30 11:42:47;;;;;;;2.17;1.73;;;19.50;30.20;;;;;;5029443;28;20490;-73
2023/04/30 11:45:33;;;;;;;5.33;1.80;;;19.60;27.40;;;;;;5022500;28;20546;-73
2023/04/30 11:48:21;;;;;;;3.70;2.00;;;19.70;28.00;;;;;;5028992;28;20533;-72
2023/04/30 11:51:15;;;;;;;4.07;1.80;;;19.80;29.20;;;;;;5022158;28;20463;-71
2023/04/30 11:54:01;;;;;;;2.70;1.73;;;20.00;30.20;;;;;;5020738;28;20438;-72
2023/04/30 11:56:48;;;;;;;2.80;1.60;;;20.10;28.40;;;;;;5030711;28;20522;-71
2023/04/30 11:59:40;;;;;;;9.40;1.40;;;20.10;26.50;;;;;;5025593;28;20841;-71
2023/04/30 12:02:25;;;;;;;3.03;1.70;;;20.20;26.60;;;;;;5020168;28;20559;-70
2023/04/30 12:05:17;;;;;;;2.90;1.90;;;20.30;27.70;;;;;;5019094;28;20447;-72
2023/04/30 12:08:06;;;;;;;2.80;1.77;;;20.40;27.60;;;;;;5025652;28;20520;-72
2023/04/30 12:10:51;;;;;;;8.23;2.10;;;20.50;28.40;;;;;;5021990;28;20446;-72
2023/04/30 12:13:37;;;;;;;3.17;1.80;;;20.50;25.60;;;;;;5026791;28;20478;-71
2023/04/30 12:16:24;;;;;;;3.20;2.00;;;20.60;25.20;;;;;;5027040;28;20450;-71
2023/04/30 12:19:10;;;;;;;3.23;2.10;;;20.70;27.00;;;;;;5029598;28;20565;-71
2023/04/30 12:21:56;;;;;;;3.77;1.70;;;20.60;26.50;;;;;;5019576;28;20478;-70
2023/04/30 12:24:42;;;;;;;3.37;1.80;;;20.50;24.50;;;;;;5023464;28;20452;-71
2023/04/30 12:27:29;;;;;;;3.03;2.07;;;20.30;26.60;;;;;;5027985;28;20492;-71
2023/04/30 12:30:14;;;;;;;3.30;1.60;;;20.10;24.90;;;;;;5028271;28;20586;-71
2023/04/30 12:33:02;;;;;;;3.10;1.90;;;20.00;26.00;;;;;;5021424;28;20438;-71
2023/04/30 12:35:47;;;;;;;6.17;2.53;;;19.90;26.60;;;;;;5025169;28;20420;-71
2023/04/30 12:38:34;;;;;;;3.00;1.43;;;20.10;28.30;;;;;;5024339;28;20813;-73
2023/04/30 12:41:20;;;;;;;3.70;2.00;;;20.30;26.60;;;;;;5019738;28;20466;-73
2023/04/30 12:44:18;;;;;;;3.63;1.60;;;20.40;26.00;;;;;;5024351;28;20463;-72
2023/04/30 12:47:08;;;;;;;5.87;1.60;;;20.20;25.10;;;;;;5023224;28;20787;-71
2023/04/30 12:49:55;;;;;;;3.10;1.87;;;20.10;26.50;;;;;;5027742;28;20472;-73
2023/04/30 12:52:41;;;;;;;3.30;1.80;;;20.00;25.00;;;;;;5020423;28;20438;-72
2023/04/30 12:55:28;;;;;;;6.43;1.83;;;20.00;24.90;;;;;;5023002;28;20450;-73
2023/04/30 12:58:15;;;;;;;4.33;2.00;;;19.90;26.30;;;;;;5025277;28;20951;-73
2023/04/30 13:01:00;;;;;;;2.50;1.60;;;19.90;26.30;;;;;;5017519;28;22659;-72
2023/04/30 13:03:46;;;;;;;4.80;1.70;;;19.90;27.30;;;;;;5018459;28;20619;-72
2023/04/30 13:06:32;;;;;;;7.53;2.07;;;19.80;26.80;;;;;;5023517;28;20807;-70
2023/04/30 13:09:17;;;;;;;4.13;1.70;;;19.80;27.10;;;;;;5020900;28;20451;-72
2023/04/30 13:12:05;;;;;;;7.47;1.53;;;19.80;26.20;;;;;;5022599;28;20946;-71
2023/04/30 13:14:50;;;;;;;3.97;1.90;;;19.90;26.40;;;;;;5025727;28;20987;-72
2023/04/30 13:17:36;;;;;;;2.27;1.63;;;19.90;26.30;;;;;;5023859;28;20589;-72
2023/04/30 13:20:23;;;;;;;3.10;1.57;;;19.70;26.20;;;;;;5021939;28;20471;-71
2023/04/30 13:23:08;;;;;;;4.00;1.60;;;19.90;26.30;;;;;;5024177;28;20474;-72
2023/04/30 13:25:54;;;;;;;4.33;1.50;;;20.20;26.10;;;;;;5011493;28;20456;-72
2023/04/30 13:28:41;;;;;;;3.63;1.50;;;20.50;22.50;;;;;;5020305;28;20622;-71
2023/04/30 13:31:26;;;;;;;8.03;1.50;;;20.90;24.40;;;;;;5018016;28;21230;-70
2023/04/30 13:34:12;;;;;;;6.67;1.60;;;21.20;23.20;;;;;;5016239;28;20438;-70
2023/04/30 13:36:57;;;;;;;2.70;1.50;;;21.40;23.50;;;;;;5024040;28;20450;-70
2023/04/30 13:39:43;;;;;;;3.00;1.73;;;21.60;21.20;;;;;;5017959;28;20972;-71
2023/04/30 13:42:28;;;;;;;2.33;1.50;;;21.80;21.30;;;;;;5021521;28;20478;-71
2023/04/30 13:45:15;;;;;;;2.83;1.40;;;22.00;21.30;;;;;;5019495;28;20499;-71
2023/04/30 13:48:00;;;;;;;4.33;1.60;;;21.90;22.30;;;;;;5023499;28;20541;-72
2023/04/30 13:50:46;;;;;;;2.00;1.20;;;21.80;20.40;;;;;;5021303;28;20467;-70
2023/04/30 13:53:31;;;;;;;2.10;1.20;;;21.80;22.40;;;;;;5024107;28;22401;-71
2023/04/30 13:56:17;;;;;;;4.17;1.63;;;22.00;21.20;;;;;;5021758;28;20451;-70
2023/04/30 13:59:02;;;;;;;3.13;1.43;;;22.10;20.70;;;;;;5021054;28;20707;-70
2023/04/30 14:01:49;;;;;;;2.37;1.33;;;21.80;19.60;;;;;;5021192;28;20490;-70
2023/04/30 14:04:35;;;;;;;4.23;2.17;;;21.40;20.50;;;;;;5017393;28;20547;-71
2023/04/30 14:07:20;;;;;;;3.57;2.17;;;21.20;21.10;;;;;;5018248;28;20481;-70
2023/04/30 14:10:07;;;;;;;2.37;1.60;;;21.10;21.70;;;;;;5018650;28;21000;-70
2023/04/30 14:12:53;;;;;;;2.30;1.40;;;21.30;23.70;;;;;;5017818;28;20451;-69
2023/04/30 14:15:38;;;;;;;2.20;1.33;;;21.40;22.30;;;;;;5022261;28;20458;-70
2023/04/30 14:18:26;;;;;;;10.13;1.67;;;21.50;21.70;;;;;;5014822;28;20530;-70